WEY30A LPCS-LPCS
Flight info
| Callsign | WEY30A |
|---|---|
| Flight time | 0h 19m |
| Altitude | 1000 |
| Route | CCAIS |
| Aircraft | C152/L-SDE2E3FGHIRWXY/LB2 |
Departure
| Time | 2026-04-29 18:19 |
|---|---|
| Airport | Cascais Airport (LPCS) |
Arrival
| Time | 2026-04-29 18:38 |
|---|---|
| Airport | Cascais Airport (LPCS) |
| Time | Latitude | Longitude | Altitude | Speed | Heading |
|---|---|---|---|---|---|
| 2026-04-29 17:15 | 38.72319 | -9.35269 | 328 ft | 0 kts | 318° |
| 2026-04-29 17:53 | 38.72323 | -9.35276 | 328 ft | 3 kts | 293° |
| 2026-04-29 17:53 | 38.72310 | -9.35323 | 328 ft | 8 kts | 258° |
| 2026-04-29 17:53 | 38.72321 | -9.35360 | 328 ft | 8 kts | 326° |
| 2026-04-29 17:53 | 38.72360 | -9.35376 | 328 ft | 0 kts | 341° |
| 2026-04-29 17:54 | 38.72365 | -9.35379 | 328 ft | 4 kts | 343° |
| 2026-04-29 17:54 | 38.72418 | -9.35398 | 328 ft | 9 kts | 344° |
| 2026-04-29 17:54 | 38.72469 | -9.35415 | 328 ft | 10 kts | 344° |
| 2026-04-29 17:55 | 38.72503 | -9.35417 | 328 ft | 0 kts | 59° |
| 2026-04-29 17:55 | 38.72504 | -9.35413 | 328 ft | 0 kts | 114° |
| 2026-04-29 17:55 | 38.72500 | -9.35424 | 328 ft | 1 kts | 356° |
| 2026-04-29 17:55 | 38.72506 | -9.35411 | 328 ft | 0 kts | 59° |
| 2026-04-29 17:56 | 38.72511 | -9.35401 | 328 ft | 6 kts | 49° |
| 2026-04-29 17:56 | 38.72526 | -9.35400 | 328 ft | 0 kts | 174° |
| 2026-04-29 17:56 | 38.72533 | -9.35403 | 328 ft | 6 kts | 322° |
| 2026-04-29 17:56 | 38.72557 | -9.35443 | 328 ft | 3 kts | 223° |
| 2026-04-29 17:57 | 38.72535 | -9.35438 | 328 ft | 0 kts | 120° |
| 2026-04-29 18:14 | 38.72533 | -9.35435 | 328 ft | 2 kts | 131° |
| 2026-04-29 18:14 | 38.72476 | -9.35418 | 328 ft | 15 kts | 165° |
| 2026-04-29 18:14 | 38.72371 | -9.35380 | 328 ft | 11 kts | 165° |
| 2026-04-29 18:15 | 38.72324 | -9.35379 | 328 ft | 5 kts | 242° |
| 2026-04-29 18:15 | 38.72285 | -9.35440 | 328 ft | 12 kts | 167° |
| 2026-04-29 18:15 | 38.72176 | -9.35399 | 328 ft | 20 kts | 167° |
| 2026-04-29 18:15 | 38.72029 | -9.35347 | 328 ft | 23 kts | 160° |
| 2026-04-29 18:16 | 38.71859 | -9.35279 | 328 ft | 22 kts | 163° |
| 2026-04-29 18:16 | 38.71778 | -9.35247 | 328 ft | 6 kts | 246° |
| 2026-04-29 18:16 | 38.71802 | -9.35258 | 328 ft | 9 kts | 344° |
| 2026-04-29 18:16 | 38.71806 | -9.35260 | 328 ft | 0 kts | 340° |
| 2026-04-29 18:17 | 38.71882 | -9.35288 | 328 ft | 37 kts | 341° |
| 2026-04-29 18:18 | 38.72272 | -9.35410 | 361 ft | 69 kts | 341° |
| 2026-04-29 18:18 | 38.72744 | -9.35588 | 526 ft | 68 kts | 332° |
| 2026-04-29 18:18 | 38.73177 | -9.35721 | 717 ft | 64 kts | 339° |
| 2026-04-29 18:18 | 38.73637 | -9.35862 | 842 ft | 69 kts | 327° |
| 2026-04-29 18:19 | 38.74118 | -9.35993 | 1000 ft | 75 kts | 348° |
| 2026-04-29 18:19 | 38.74626 | -9.36103 | 1078 ft | 61 kts | 290° |
| 2026-04-29 18:19 | 38.74527 | -9.36594 | 1061 ft | 68 kts | 233° |
| 2026-04-29 18:19 | 38.74103 | -9.36852 | 1059 ft | 82 kts | 174° |
| 2026-04-29 18:20 | 38.73529 | -9.36703 | 1026 ft | 86 kts | 175° |
| 2026-04-29 18:20 | 38.72919 | -9.36535 | 979 ft | 91 kts | 173° |
| 2026-04-29 18:20 | 38.72311 | -9.36337 | 976 ft | 90 kts | 172° |
| 2026-04-29 18:20 | 38.71704 | -9.36144 | 959 ft | 88 kts | 172° |
| 2026-04-29 18:21 | 38.71204 | -9.35952 | 924 ft | 63 kts | 171° |
| 2026-04-29 18:21 | 38.70793 | -9.35794 | 857 ft | 61 kts | 170° |
| 2026-04-29 18:21 | 38.70614 | -9.35330 | 806 ft | 69 kts | 86° |
| 2026-04-29 18:21 | 38.70871 | -9.34903 | 729 ft | 60 kts | 352° |
| 2026-04-29 18:22 | 38.71257 | -9.35056 | 592 ft | 62 kts | 329° |
| 2026-04-29 18:22 | 38.71685 | -9.35218 | 407 ft | 67 kts | 333° |
| 2026-04-29 18:22 | 38.72105 | -9.35376 | 328 ft | 53 kts | 343° |
| 2026-04-29 18:22 | 38.72509 | -9.35506 | 351 ft | 70 kts | 335° |
| 2026-04-29 18:23 | 38.72972 | -9.35661 | 548 ft | 65 kts | 340° |
| 2026-04-29 18:23 | 38.73418 | -9.35776 | 698 ft | 67 kts | 333° |
| 2026-04-29 18:23 | 38.73896 | -9.35940 | 829 ft | 75 kts | 334° |
| 2026-04-29 18:23 | 38.74380 | -9.36120 | 1005 ft | 73 kts | 331° |
| 2026-04-29 18:24 | 38.74789 | -9.36424 | 1094 ft | 62 kts | 289° |
| 2026-04-29 18:24 | 38.74749 | -9.36993 | 1039 ft | 72 kts | 253° |
| 2026-04-29 18:24 | 38.74426 | -9.37454 | 1043 ft | 74 kts | 197° |
| 2026-04-29 18:24 | 38.73879 | -9.37312 | 996 ft | 85 kts | 171° |
| 2026-04-29 18:25 | 38.73315 | -9.37086 | 966 ft | 84 kts | 171° |
| 2026-04-29 18:25 | 38.72755 | -9.36863 | 971 ft | 82 kts | 174° |
| 2026-04-29 18:25 | 38.72194 | -9.36652 | 934 ft | 84 kts | 171° |
| 2026-04-29 18:25 | 38.71615 | -9.36450 | 919 ft | 83 kts | 172° |
| 2026-04-29 18:26 | 38.71102 | -9.36267 | 894 ft | 66 kts | 174° |
| 2026-04-29 18:26 | 38.70701 | -9.36020 | 867 ft | 67 kts | 139° |
| 2026-04-29 18:26 | 38.70658 | -9.35413 | 822 ft | 72 kts | 81° |
| 2026-04-29 18:26 | 38.70900 | -9.34944 | 731 ft | 59 kts | 349° |
| 2026-04-29 18:27 | 38.71318 | -9.35088 | 570 ft | 65 kts | 334° |
| 2026-04-29 18:27 | 38.71761 | -9.35248 | 376 ft | 69 kts | 332° |
| 2026-04-29 18:27 | 38.72175 | -9.35398 | 328 ft | 52 kts | 341° |
| 2026-04-29 18:27 | 38.72607 | -9.35527 | 410 ft | 64 kts | 334° |
| 2026-04-29 18:28 | 38.73017 | -9.35696 | 476 ft | 60 kts | 327° |
| 2026-04-29 18:28 | 38.73412 | -9.35891 | 605 ft | 66 kts | 322° |
| 2026-04-29 18:28 | 38.73879 | -9.36050 | 750 ft | 74 kts | 340° |
| 2026-04-29 18:28 | 38.74392 | -9.36163 | 918 ft | 75 kts | 350° |
| 2026-04-29 18:29 | 38.74869 | -9.35927 | 1084 ft | 82 kts | 53° |
| 2026-04-29 18:29 | 38.75016 | -9.35457 | 1117 ft | 88 kts | 86° |
| 2026-04-29 18:29 | 38.74701 | -9.34652 | 1277 ft | 73 kts | 174° |
| 2026-04-29 18:29 | 38.74206 | -9.34550 | 1391 ft | 71 kts | 193° |
| 2026-04-29 18:30 | 38.73682 | -9.34583 | 1437 ft | 79 kts | 196° |
| 2026-04-29 18:30 | 38.73158 | -9.34828 | 1471 ft | 81 kts | 225° |
| 2026-04-29 18:30 | 38.72901 | -9.35383 | 1616 ft | 75 kts | 244° |
| 2026-04-29 18:31 | 38.72729 | -9.35870 | 1630 ft | 58 kts | 244° |
| 2026-04-29 18:31 | 38.72480 | -9.36188 | 1503 ft | 56 kts | 199° |
| 2026-04-29 18:31 | 38.72078 | -9.36191 | 1349 ft | 59 kts | 186° |
| 2026-04-29 18:32 | 38.71678 | -9.36107 | 1209 ft | 60 kts | 174° |
| 2026-04-29 18:32 | 38.70979 | -9.35565 | 935 ft | 64 kts | 131° |
| 2026-04-29 18:32 | 38.70927 | -9.34999 | 792 ft | 68 kts | 58° |
| 2026-04-29 18:33 | 38.71308 | -9.34930 | 602 ft | 61 kts | 309° |
| 2026-04-29 18:33 | 38.71690 | -9.35217 | 430 ft | 72 kts | 338° |
| 2026-04-29 18:33 | 38.72148 | -9.35389 | 331 ft | 58 kts | 332° |
| 2026-04-29 18:33 | 38.72535 | -9.35516 | 357 ft | 64 kts | 336° |
| 2026-04-29 18:34 | 38.72979 | -9.35632 | 516 ft | 66 kts | 340° |
| 2026-04-29 18:34 | 38.73278 | -9.35684 | 626 ft | 66 kts | 342° |
| 2026-04-29 18:34 | 38.73870 | -9.35800 | 859 ft | 65 kts | 335° |
| 2026-04-29 18:34 | 38.74281 | -9.35947 | 1008 ft | 61 kts | 306° |
| 2026-04-29 18:35 | 38.74326 | -9.36470 | 1056 ft | 67 kts | 247° |
| 2026-04-29 18:35 | 38.74010 | -9.36869 | 1064 ft | 75 kts | 189° |
| 2026-04-29 18:35 | 38.73421 | -9.36782 | 948 ft | 87 kts | 185° |
| 2026-04-29 18:35 | 38.72868 | -9.36703 | 949 ft | 74 kts | 183° |
| 2026-04-29 18:36 | 38.72353 | -9.36638 | 970 ft | 73 kts | 183° |
| 2026-04-29 18:36 | 38.71835 | -9.36607 | 1003 ft | 75 kts | 192° |
| 2026-04-29 18:36 | 38.71363 | -9.36592 | 1024 ft | 59 kts | 181° |
| 2026-04-29 18:36 | 38.70964 | -9.36494 | 1019 ft | 60 kts | 165° |
| 2026-04-29 18:37 | 38.70779 | -9.36005 | 910 ft | 71 kts | 89° |
| 2026-04-29 18:37 | 38.70837 | -9.35366 | 770 ft | 73 kts | 79° |
| 2026-04-29 18:37 | 38.71108 | -9.35010 | 664 ft | 60 kts | 334° |
| 2026-04-29 18:37 | 38.71539 | -9.35171 | 480 ft | 67 kts | 321° |
| 2026-04-29 18:38 | 38.71985 | -9.35328 | 329 ft | 59 kts | 332° |
| 2026-04-29 18:38 | 38.72266 | -9.35428 | 328 ft | 20 kts | 345° |
| 2026-04-29 18:38 | 38.72321 | -9.35395 | 328 ft | 12 kts | 72° |
| 2026-04-29 18:38 | 38.72307 | -9.35327 | 328 ft | 10 kts | 90° |
| 2026-04-29 18:39 | 38.72327 | -9.35269 | 328 ft | 0 kts | 5° |
| 2026-04-29 18:39 | 38.72336 | -9.35276 | 328 ft | 0 kts | 318° |